createdAt,value
2023-05-15T00:00:03.067Z,0.00
2023-05-15T00:01:03.152Z,0.00
2023-05-15T00:02:03.091Z,0.00
2023-05-15T00:03:02.269Z,0.00
2023-05-15T00:04:02.795Z,0.00
2023-05-15T00:05:02.522Z,0.00
2023-05-15T00:06:02.472Z,0.00
2023-05-15T00:07:02.371Z,0.00
2023-05-15T00:08:03.042Z,0.00
2023-05-15T00:09:02.724Z,0.00
2023-05-15T00:10:02.619Z,0.00
2023-05-15T00:11:02.581Z,0.00
2023-05-15T00:12:02.403Z,0.00
2023-05-15T00:13:02.041Z,0.00
2023-05-15T00:14:01.992Z,0.00
2023-05-15T00:15:02.566Z,0.00
2023-05-15T00:16:02.199Z,0.00
2023-05-15T00:17:02.045Z,0.00
2023-05-15T00:18:03.205Z,0.00
2023-05-15T00:19:03.303Z,0.00
2023-05-15T00:20:02.968Z,0.00
2023-05-15T00:21:02.940Z,0.00
2023-05-15T00:22:02.850Z,0.00
2023-05-15T00:23:02.740Z,0.00
2023-05-15T00:24:03.022Z,0.00
2023-05-15T00:25:02.755Z,0.00
2023-05-15T00:26:03.086Z,0.00
2023-05-15T00:27:03.045Z,0.00
2023-05-15T00:28:02.132Z,0.00
2023-05-15T00:29:02.075Z,0.00
2023-05-15T00:30:02.180Z,0.00
2023-05-15T00:31:02.296Z,0.00
2023-05-15T00:32:02.204Z,0.00
2023-05-15T00:33:02.155Z,0.00
2023-05-15T00:34:02.208Z,0.00
2023-05-15T00:35:02.157Z,0.00
2023-05-15T00:36:02.434Z,0.00
2023-05-15T00:37:02.463Z,0.00
2023-05-15T00:38:02.847Z,0.00
2023-05-15T00:39:02.804Z,0.00
2023-05-15T00:40:02.854Z,0.00
2023-05-15T00:41:02.917Z,0.00
2023-05-15T00:42:02.837Z,0.00
2023-05-15T00:43:02.749Z,0.00
2023-05-15T00:44:02.658Z,0.00
2023-05-15T00:45:03.296Z,0.00
2023-05-15T00:46:02.976Z,0.00
2023-05-15T00:47:02.945Z,0.00
2023-05-15T00:48:02.996Z,0.00
2023-05-15T00:49:03.022Z,0.00
2023-05-15T00:50:03.306Z,0.00
2023-05-15T00:51:03.292Z,0.00
2023-05-15T00:52:03.250Z,0.00
2023-05-15T00:53:02.249Z,0.00
2023-05-15T00:54:02.366Z,0.00
2023-05-15T00:55:02.463Z,0.00
2023-05-15T00:56:02.443Z,0.00
2023-05-15T00:57:02.409Z,0.00
2023-05-15T00:58:02.381Z,0.00
2023-05-15T00:59:02.266Z,0.00
2023-05-15T01:00:02.370Z,0.00
2023-05-15T01:01:02.875Z,0.00
2023-05-15T01:02:02.715Z,0.00
2023-05-15T01:03:02.831Z,0.00
2023-05-15T01:04:02.934Z,0.00
2023-05-15T01:05:03.006Z,0.00
2023-05-15T01:06:02.992Z,0.00
2023-05-15T01:07:02.911Z,0.00
2023-05-15T01:08:02.869Z,0.00
2023-05-15T01:09:03.298Z,0.00
2023-05-15T01:10:03.100Z,0.00
2023-05-15T01:11:03.096Z,0.00
2023-05-15T01:12:03.117Z,0.00
2023-05-15T01:13:03.220Z,0.00
2023-05-15T01:14:03.054Z,0.00
2023-05-15T01:15:03.514Z,0.00
2023-05-15T01:16:03.458Z,0.00
2023-05-15T01:17:03.394Z,0.00
2023-05-15T01:18:02.517Z,0.00
2023-05-15T01:19:02.646Z,0.00
2023-05-15T01:20:02.562Z,0.00
2023-05-15T01:21:02.490Z,0.00
2023-05-15T01:22:02.686Z,0.00
2023-05-15T01:23:02.605Z,0.00
2023-05-15T01:24:02.579Z,0.00
2023-05-15T01:25:02.539Z,0.00
2023-05-15T01:26:02.453Z,0.00
2023-05-15T01:27:03.081Z,0.00
2023-05-15T01:28:02.909Z,0.00
2023-05-15T01:29:02.752Z,0.00
2023-05-15T01:30:02.732Z,0.00
2023-05-15T01:31:02.690Z,0.00
2023-05-15T01:32:02.794Z,0.00
2023-05-15T01:33:02.560Z,0.00
2023-05-15T01:34:02.638Z,0.00
2023-05-15T01:35:02.669Z,0.00
2023-05-15T01:36:02.535Z,0.00
2023-05-15T01:37:02.520Z,0.00
2023-05-15T01:38:02.647Z,0.00
2023-05-15T01:39:02.682Z,0.00
2023-05-15T01:40:02.601Z,0.00
2023-05-15T01:41:02.654Z,0.00
2023-05-15T01:42:02.625Z,0.00
2023-05-15T01:43:03.231Z,0.00
2023-05-15T01:44:03.263Z,0.00
2023-05-15T01:45:03.238Z,0.00
2023-05-15T01:46:03.219Z,0.00
2023-05-15T01:47:03.102Z,0.00
2023-05-15T01:48:03.092Z,0.00
2023-05-15T01:49:02.847Z,0.00
2023-05-15T01:50:02.915Z,0.00
2023-05-15T01:51:02.863Z,0.00
2023-05-15T01:52:02.804Z,0.00
2023-05-15T01:53:02.595Z,0.00
2023-05-15T01:54:02.816Z,0.00
2023-05-15T01:55:02.631Z,0.00
2023-05-15T01:56:02.693Z,0.00
2023-05-15T01:57:02.735Z,0.00
2023-05-15T01:58:03.135Z,0.00
2023-05-15T01:59:02.863Z,0.00
2023-05-15T02:00:03.335Z,0.00
2023-05-15T02:01:03.261Z,0.00
2023-05-15T02:02:03.294Z,0.00
2023-05-15T02:03:02.861Z,0.00
2023-05-15T02:04:02.964Z,0.00
2023-05-15T02:05:02.731Z,0.00
2023-05-15T02:06:02.561Z,0.00
2023-05-15T02:07:03.071Z,0.00
2023-05-15T02:08:03.119Z,0.00
2023-05-15T02:09:03.061Z,0.00
2023-05-15T02:10:03.021Z,0.00
2023-05-15T02:11:03.016Z,0.00
2023-05-15T02:12:02.984Z,0.00
2023-05-15T02:13:02.612Z,0.00
2023-05-15T02:14:02.558Z,0.00
2023-05-15T02:15:02.477Z,0.00
2023-05-15T02:16:02.812Z,0.00
2023-05-15T02:17:02.687Z,0.00
2023-05-15T02:18:02.727Z,0.00
2023-05-15T02:19:02.652Z,0.00
2023-05-15T02:20:02.659Z,0.00
2023-05-15T02:21:02.842Z,0.00
2023-05-15T02:22:02.535Z,0.00
2023-05-15T02:23:03.156Z,0.00
2023-05-15T02:24:03.132Z,0.00
2023-05-15T02:25:03.091Z,0.00
2023-05-15T02:26:02.920Z,0.00
2023-05-15T02:27:02.896Z,0.00
2023-05-15T02:28:02.495Z,0.00
2023-05-15T02:29:02.420Z,0.00
2023-05-15T02:30:02.379Z,0.00
2023-05-15T02:31:02.753Z,0.00
2023-05-15T02:32:02.706Z,0.00
2023-05-15T02:33:03.055Z,0.00
2023-05-15T02:34:03.041Z,0.00
2023-05-15T02:35:02.919Z,0.00
2023-05-15T02:36:02.867Z,0.00
2023-05-15T02:37:02.808Z,0.00
2023-05-15T02:38:03.537Z,0.00
2023-05-15T02:39:03.014Z,0.00
2023-05-15T02:40:03.064Z,0.00
2023-05-15T02:41:03.077Z,0.00
2023-05-15T02:42:03.053Z,0.00
2023-05-15T02:43:02.720Z,0.00
2023-05-15T02:44:02.583Z,0.00
2023-05-15T02:45:02.603Z,0.00
2023-05-15T02:46:02.691Z,0.00
2023-05-15T02:47:02.536Z,0.00
2023-05-15T02:48:03.326Z,0.00
2023-05-15T02:49:02.688Z,0.00
2023-05-15T02:50:03.226Z,0.00
2023-05-15T02:51:02.988Z,0.00
2023-05-15T02:52:02.654Z,0.00
2023-05-15T02:53:03.405Z,0.00
2023-05-15T02:54:03.113Z,0.00
2023-05-15T02:55:03.097Z,0.00
2023-05-15T02:56:03.052Z,0.00
2023-05-15T02:57:03.117Z,0.00
2023-05-15T02:58:02.894Z,0.00
2023-05-15T02:59:02.702Z,0.00
2023-05-15T03:00:02.858Z,0.00
2023-05-15T03:01:02.764Z,0.00
2023-05-15T03:02:02.716Z,0.00
2023-05-15T03:03:02.838Z,0.00
2023-05-15T03:04:02.970Z,0.00
2023-05-15T03:05:02.840Z,0.00
2023-05-15T03:06:02.843Z,0.00
2023-05-15T03:07:02.789Z,0.00
2023-05-15T03:08:01.858Z,0.00
2023-05-15T03:09:02.495Z,0.00
2023-05-15T03:10:02.475Z,4.00
2023-05-15T03:11:01.879Z,4.00
2023-05-15T03:12:02.177Z,0.00
2023-05-15T03:13:02.837Z,4.00
2023-05-15T03:14:02.563Z,4.00
2023-05-15T03:15:02.229Z,4.00
2023-05-15T03:16:02.226Z,4.00
2023-05-15T03:17:02.209Z,8.00
2023-05-15T03:18:02.033Z,8.00
2023-05-15T03:19:01.961Z,8.00
2023-05-15T03:20:02.007Z,8.00
2023-05-15T03:21:01.954Z,8.00
2023-05-15T03:22:01.903Z,8.00
2023-05-15T03:23:02.106Z,12.00
2023-05-15T03:24:02.060Z,12.00
2023-05-15T03:25:02.061Z,12.00
2023-05-15T03:26:02.130Z,12.00
2023-05-15T03:27:02.096Z,20.00
2023-05-15T03:28:01.870Z,20.00
2023-05-15T03:29:01.957Z,20.00
2023-05-15T03:30:01.978Z,28.00
2023-05-15T03:31:01.980Z,32.00
2023-05-15T03:32:02.080Z,36.00
2023-05-15T03:33:02.186Z,40.00
2023-05-15T03:34:02.221Z,40.00
2023-05-15T03:35:02.190Z,40.00
2023-05-15T03:36:02.188Z,52.00
2023-05-15T03:37:02.194Z,56.00
2023-05-15T03:38:02.215Z,56.00
2023-05-15T03:39:02.277Z,60.00
2023-05-15T03:40:02.195Z,72.00
2023-05-15T03:41:02.268Z,88.00
2023-05-15T03:42:02.280Z,88.00
2023-05-15T03:43:02.282Z,84.00
2023-05-15T03:44:02.476Z,96.00
2023-05-15T03:45:02.824Z,116.00
2023-05-15T03:46:02.656Z,116.00
2023-05-15T03:47:02.343Z,128.00
2023-05-15T03:48:02.504Z,140.00
2023-05-15T03:49:02.415Z,136.00
2023-05-15T03:50:02.555Z,144.00
2023-05-15T03:51:02.913Z,172.00
2023-05-15T03:52:02.779Z,168.00
2023-05-15T03:53:01.874Z,212.00
2023-05-15T03:54:01.881Z,244.00
2023-05-15T03:55:01.979Z,260.00
2023-05-15T03:56:02.148Z,232.00
2023-05-15T03:57:02.251Z,188.00
2023-05-15T03:58:02.057Z,228.00
2023-05-15T03:59:02.116Z,280.00
2023-05-15T04:00:02.171Z,320.00
2023-05-15T04:01:02.458Z,348.00
2023-05-15T04:02:04.958Z,376.00
2023-05-15T04:03:02.976Z,392.00
2023-05-15T04:04:03.119Z,400.00
2023-05-15T04:05:03.156Z,412.00
2023-05-15T04:06:02.751Z,408.00
2023-05-15T04:07:02.782Z,408.00
2023-05-15T04:08:02.834Z,392.00
2023-05-15T04:09:02.940Z,412.00
2023-05-15T04:10:03.051Z,492.00
2023-05-15T04:11:03.097Z,544.00
2023-05-15T04:12:03.257Z,568.00
2023-05-15T04:13:02.372Z,632.00
2023-05-15T04:14:02.451Z,656.00
2023-05-15T04:15:02.619Z,624.00
2023-05-15T04:16:02.408Z,576.00
2023-05-15T04:17:02.564Z,572.00
2023-05-15T04:18:02.764Z,652.00
2023-05-15T04:19:03.057Z,732.00
2023-05-15T04:20:02.458Z,776.00
2023-05-15T04:21:02.879Z,888.00
2023-05-15T04:22:02.913Z,972.00
2023-05-15T04:23:03.005Z,1028.00
2023-05-15T04:24:03.212Z,1020.00
2023-05-15T04:25:03.401Z,984.00
2023-05-15T04:26:03.333Z,1000.00
2023-05-15T04:27:03.240Z,988.00
2023-05-15T04:28:02.246Z,956.00
2023-05-15T04:29:04.527Z,932.00
2023-05-15T04:30:02.398Z,912.00
2023-05-15T04:31:02.382Z,944.00
2023-05-15T04:32:02.579Z,1008.00
2023-05-15T04:33:02.844Z,1016.00
2023-05-15T04:34:03.049Z,972.00
2023-05-15T04:35:03.096Z,936.00
2023-05-15T04:36:02.981Z,944.00
2023-05-15T04:37:03.056Z,992.00
2023-05-15T04:38:03.058Z,996.00
2023-05-15T04:39:03.170Z,948.00
2023-05-15T04:40:02.846Z,1008.00
2023-05-15T04:41:02.900Z,968.00
2023-05-15T04:42:02.909Z,968.00
2023-05-15T04:43:02.562Z,956.00
2023-05-15T04:44:02.790Z,1020.00
2023-05-15T04:45:02.440Z,1060.00
2023-05-15T04:46:02.356Z,1096.00
2023-05-15T04:47:02.624Z,1032.00
2023-05-15T04:48:02.771Z,952.00
2023-05-15T04:49:02.805Z,1000.00
2023-05-15T04:50:03.023Z,1028.00
2023-05-15T04:51:02.890Z,1028.00
2023-05-15T04:52:02.977Z,1052.00
2023-05-15T04:53:02.795Z,1088.00
2023-05-15T04:54:02.442Z,1076.00
2023-05-15T04:55:02.577Z,1056.00
2023-05-15T04:56:02.715Z,1032.00
2023-05-15T04:57:02.781Z,1064.00
2023-05-15T04:58:02.802Z,1104.00
2023-05-15T04:59:02.606Z,1164.00
2023-05-15T05:00:03.068Z,1260.00
2023-05-15T05:01:04.139Z,1276.00
2023-05-15T05:02:03.122Z,1332.00
2023-05-15T05:03:03.472Z,1448.00
2023-05-15T05:04:02.858Z,1684.00
2023-05-15T05:05:03.098Z,1804.00
2023-05-15T05:06:03.227Z,1732.00
2023-05-15T05:07:03.469Z,1696.00
2023-05-15T05:08:03.327Z,1728.00
2023-05-15T05:09:03.419Z,1796.00
2023-05-15T05:10:03.111Z,1580.00
2023-05-15T05:11:03.550Z,1520.00
2023-05-15T05:12:03.165Z,1664.00
2023-05-15T05:13:02.709Z,1796.00
2023-05-15T05:14:02.720Z,1784.00
2023-05-15T05:15:02.829Z,1692.00
2023-05-15T05:16:02.583Z,1556.00
2023-05-15T05:17:02.767Z,1512.00
2023-05-15T05:18:03.451Z,1528.00
2023-05-15T05:19:03.408Z,1640.00
2023-05-15T05:20:03.009Z,1680.00
2023-05-15T05:21:03.143Z,1668.00
2023-05-15T05:22:03.444Z,1652.00
2023-05-15T05:23:03.647Z,1588.00
2023-05-15T05:24:03.415Z,1572.00
2023-05-15T05:25:03.651Z,1600.00
2023-05-15T05:26:05.379Z,1660.00
2023-05-15T05:27:03.200Z,1644.00
2023-05-15T05:28:03.017Z,1588.00
2023-05-15T05:29:02.637Z,1560.00
2023-05-15T05:30:02.899Z,1644.00
2023-05-15T05:31:02.758Z,1720.00
2023-05-15T05:32:02.943Z,1744.00
2023-05-15T05:33:03.613Z,1796.00
2023-05-15T05:34:03.609Z,1820.00
2023-05-15T05:35:03.354Z,1932.00
2023-05-15T05:36:03.408Z,2048.00
2023-05-15T05:37:03.611Z,2180.00
2023-05-15T05:38:03.269Z,2248.00
2023-05-15T05:39:03.379Z,2344.00
2023-05-15T05:40:03.357Z,2532.00
2023-05-15T05:41:03.261Z,2600.00
2023-05-15T05:42:02.758Z,2568.00
2023-05-15T05:43:03.641Z,2544.00
2023-05-15T05:44:03.331Z,2548.00
2023-05-15T05:45:03.345Z,2632.00
2023-05-15T05:46:03.405Z,2940.00
2023-05-15T05:47:03.589Z,3240.00
2023-05-15T05:48:03.124Z,3352.00
2023-05-15T05:49:02.863Z,3140.00
2023-05-15T05:50:02.884Z,3012.00
2023-05-15T05:51:03.006Z,3124.00
2023-05-15T05:52:02.953Z,3344.00
2023-05-15T05:53:03.359Z,3608.00
2023-05-15T05:54:02.859Z,3688.00
2023-05-15T05:55:03.161Z,3592.00
2023-05-15T05:56:02.933Z,3204.00
2023-05-15T05:57:02.731Z,3080.00
2023-05-15T05:58:06.485Z,3288.00
2023-05-15T05:59:03.467Z,3532.00
2023-05-15T06:00:03.788Z,3812.00
2023-05-15T06:01:03.675Z,3708.00
2023-05-15T06:02:03.309Z,3336.00
2023-05-15T06:03:03.334Z,3224.00
2023-05-15T06:04:02.739Z,3476.00
2023-05-15T06:05:02.937Z,3596.00
2023-05-15T06:06:03.104Z,3776.00
2023-05-15T06:07:02.871Z,3516.00
2023-05-15T06:08:02.147Z,3212.00
2023-05-15T06:09:02.704Z,3292.00
2023-05-15T06:10:02.565Z,3640.00
2023-05-15T06:11:02.715Z,3912.00
2023-05-15T06:12:02.698Z,3768.00
2023-05-15T06:13:02.169Z,3500.00
2023-05-15T06:14:02.577Z,3420.00
2023-05-15T06:15:02.424Z,3608.00
2023-05-15T06:16:02.799Z,3984.00
2023-05-15T06:17:02.922Z,3980.00
2023-05-15T06:18:02.558Z,3732.00
2023-05-15T06:19:02.769Z,3608.00
2023-05-15T06:20:03.106Z,3824.00
2023-05-15T06:21:02.719Z,3960.00
2023-05-15T06:22:02.755Z,4028.00
2023-05-15T06:23:02.580Z,4180.00
2023-05-15T06:24:02.608Z,3988.00
2023-05-15T06:25:03.032Z,3616.00
2023-05-15T06:26:03.121Z,3612.00
2023-05-15T06:27:03.236Z,3872.00
2023-05-15T06:28:02.344Z,4112.00
2023-05-15T06:29:02.291Z,4280.00
2023-05-15T06:30:02.606Z,4068.00
2023-05-15T06:31:02.695Z,4220.00
2023-05-15T06:32:02.761Z,4648.00
2023-05-15T06:33:03.090Z,4804.00
2023-05-15T06:34:03.028Z,4724.00
2023-05-15T06:35:02.860Z,4816.00
2023-05-15T06:36:02.870Z,4716.00
2023-05-15T06:37:03.296Z,4032.00
2023-05-15T06:38:03.228Z,3424.00
2023-05-15T06:39:03.525Z,3492.00
2023-05-15T06:40:03.608Z,4000.00
2023-05-15T06:41:03.298Z,4396.00
2023-05-15T06:42:03.339Z,4520.00
2023-05-15T06:43:02.650Z,4560.00
2023-05-15T06:44:02.666Z,4568.00
2023-05-15T06:45:03.156Z,4296.00
2023-05-15T06:46:02.646Z,4228.00
2023-05-15T06:47:02.726Z,4448.00
2023-05-15T06:48:02.856Z,4456.00
2023-05-15T06:49:02.950Z,4400.00
2023-05-15T06:50:03.161Z,4284.00
2023-05-15T06:51:03.129Z,4060.00
2023-05-15T06:52:03.172Z,3916.00
2023-05-15T06:53:02.364Z,3904.00
2023-05-15T06:54:02.230Z,3964.00
2023-05-15T06:55:02.402Z,4300.00
2023-05-15T06:56:02.195Z,4692.00
2023-05-15T06:57:02.665Z,4508.00
2023-05-15T06:58:02.494Z,4248.00
2023-05-15T06:59:02.447Z,4240.00
2023-05-15T07:00:02.769Z,4476.00
2023-05-15T07:01:02.759Z,4700.00
2023-05-15T07:02:03.220Z,4784.00
2023-05-15T07:03:02.691Z,4796.00
2023-05-15T07:04:02.458Z,5060.00
2023-05-15T07:05:02.981Z,4948.00
2023-05-15T07:06:03.103Z,4604.00
2023-05-15T07:07:02.798Z,4280.00
2023-05-15T07:08:02.170Z,4088.00
2023-05-15T07:09:02.462Z,4108.00
2023-05-15T07:10:02.360Z,4356.00
2023-05-15T07:11:02.322Z,4528.00
2023-05-15T07:12:02.278Z,4576.00
2023-05-15T07:13:02.078Z,4676.00
2023-05-15T07:14:01.813Z,5048.00
2023-05-15T07:15:02.246Z,5864.00
2023-05-15T07:16:01.976Z,6148.00
2023-05-15T07:17:01.696Z,5824.00
2023-05-15T07:18:02.681Z,5588.00
2023-05-15T07:19:02.481Z,5672.00
2023-05-15T07:20:02.534Z,5808.00
2023-05-15T07:21:02.574Z,5540.00
2023-05-15T07:22:03.526Z,5140.00
2023-05-15T07:23:02.677Z,5028.00
2023-05-15T07:24:02.840Z,5640.00
2023-05-15T07:25:02.787Z,6500.00
2023-05-15T07:26:02.788Z,6032.00
2023-05-15T07:27:02.708Z,5948.00
2023-05-15T07:28:02.722Z,6824.00
2023-05-15T07:29:03.091Z,7160.00
2023-05-15T07:30:02.587Z,6528.00
2023-05-15T07:31:03.297Z,6216.00
2023-05-15T07:32:03.109Z,6484.00
2023-05-15T07:33:02.453Z,6660.00
2023-05-15T07:34:02.547Z,6696.00
2023-05-15T07:35:02.260Z,6548.00
2023-05-15T07:36:02.735Z,6092.00
2023-05-15T07:37:02.221Z,6024.00
2023-05-15T07:38:02.962Z,5672.00
2023-05-15T07:39:02.884Z,5324.00
2023-05-15T07:40:02.649Z,5216.00
2023-05-15T07:41:02.818Z,5336.00
2023-05-15T07:42:02.912Z,5492.00
2023-05-15T07:43:02.295Z,5464.00
2023-05-15T07:44:02.124Z,5440.00
2023-05-15T07:45:02.598Z,5660.00
2023-05-15T07:46:02.307Z,5748.00
2023-05-15T07:47:02.533Z,6372.00
2023-05-15T07:48:02.978Z,6320.00
2023-05-15T07:49:02.692Z,5764.00
2023-05-15T07:50:02.954Z,5576.00
2023-05-15T07:51:03.155Z,5592.00
2023-05-15T07:52:03.260Z,5620.00
2023-05-15T07:53:02.595Z,5612.00
2023-05-15T07:54:02.447Z,5756.00
2023-05-15T07:55:02.319Z,5696.00
2023-05-15T07:56:02.007Z,5584.00
2023-05-15T07:57:02.122Z,5840.00
2023-05-15T07:58:03.043Z,6204.00
2023-05-15T07:59:03.176Z,5936.00
2023-05-15T08:00:03.150Z,5388.00
2023-05-15T08:01:02.639Z,4980.00
2023-05-15T08:02:02.797Z,5184.00
2023-05-15T08:03:02.655Z,5444.00
2023-05-15T08:04:02.254Z,4916.00
2023-05-15T08:05:02.133Z,4792.00
2023-05-15T08:06:02.588Z,4908.00
2023-05-15T08:07:02.045Z,5028.00
2023-05-15T08:08:02.533Z,5304.00
2023-05-15T08:09:02.709Z,5564.00
2023-05-15T08:10:02.604Z,5804.00
2023-05-15T08:11:02.138Z,6724.00
2023-05-15T08:12:02.076Z,7652.00
2023-05-15T08:13:03.157Z,8008.00
2023-05-15T08:14:03.152Z,8280.00
2023-05-15T08:15:02.798Z,7996.00
2023-05-15T08:16:03.283Z,7460.00
2023-05-15T08:17:02.708Z,7444.00
2023-05-15T08:18:02.517Z,7888.00
2023-05-15T08:19:02.249Z,8100.00
2023-05-15T08:20:02.270Z,7492.00
2023-05-15T08:21:04.140Z,7228.00
2023-05-15T08:22:02.612Z,6972.00
2023-05-15T08:23:02.796Z,6612.00
2023-05-15T08:24:02.428Z,6628.00
2023-05-15T08:25:02.938Z,6776.00
2023-05-15T08:26:02.927Z,7032.00
2023-05-15T08:27:02.619Z,7388.00
2023-05-15T08:28:02.839Z,7516.00
2023-05-15T08:29:02.915Z,7928.00
2023-05-15T08:30:02.327Z,8904.00
2023-05-15T08:31:02.889Z,10556.00
2023-05-15T08:32:02.776Z,11628.00
2023-05-15T08:33:02.735Z,10588.00
2023-05-15T08:34:02.809Z,9972.00
2023-05-15T08:35:03.055Z,9884.00
2023-05-15T08:36:02.621Z,9136.00
2023-05-15T08:37:02.916Z,7980.00
2023-05-15T08:38:02.590Z,7360.00
2023-05-15T08:39:02.345Z,7548.00
2023-05-15T08:40:02.185Z,7872.00
2023-05-15T08:41:02.435Z,8212.00
2023-05-15T08:42:02.078Z,8460.00
2023-05-15T08:43:03.273Z,8552.00
2023-05-15T08:44:02.975Z,8868.00
2023-05-15T08:45:02.926Z,8972.00
2023-05-15T08:46:03.284Z,9148.00
2023-05-15T08:47:02.903Z,9388.00
2023-05-15T08:48:03.048Z,9668.00
2023-05-15T08:49:03.050Z,10252.00
2023-05-15T08:50:02.613Z,11116.00
2023-05-15T08:51:02.454Z,11704.00
2023-05-15T08:52:03.047Z,11640.00
2023-05-15T08:53:03.523Z,11052.00
2023-05-15T08:54:03.108Z,10428.00
2023-05-15T08:55:03.293Z,10180.00
2023-05-15T08:56:03.402Z,10424.00
2023-05-15T08:57:03.131Z,11084.00
2023-05-15T08:58:02.120Z,11468.00
2023-05-15T08:59:02.391Z,10948.00
2023-05-15T09:00:02.800Z,10312.00
2023-05-15T09:01:02.795Z,10428.00
2023-05-15T09:02:02.212Z,10980.00
2023-05-15T09:03:02.264Z,11332.00
2023-05-15T09:04:02.902Z,11708.00
2023-05-15T09:05:02.517Z,11956.00
2023-05-15T09:06:02.747Z,11804.00
2023-05-15T09:07:02.713Z,12076.00
2023-05-15T09:08:02.260Z,12660.00
2023-05-15T09:09:02.817Z,13364.00
2023-05-15T09:10:02.429Z,13468.00
2023-05-15T09:11:02.492Z,13480.00
2023-05-15T09:12:02.540Z,14532.00
2023-05-15T09:13:02.671Z,15840.00
2023-05-15T09:14:01.701Z,16512.00
2023-05-15T09:15:02.290Z,15424.00
2023-05-15T09:16:01.686Z,13248.00
2023-05-15T09:17:02.246Z,12188.00
2023-05-15T09:18:02.273Z,11948.00
2023-05-15T09:19:02.468Z,11504.00
2023-05-15T09:20:02.535Z,10776.00
2023-05-15T09:21:02.583Z,10348.00
2023-05-15T09:22:02.852Z,10228.00
2023-05-15T09:23:02.558Z,10152.00
2023-05-15T09:24:02.139Z,10520.00
2023-05-15T09:25:02.061Z,10992.00
2023-05-15T09:26:01.893Z,10872.00
2023-05-15T09:27:02.370Z,10600.00
2023-05-15T09:28:01.935Z,11188.00
2023-05-15T09:29:02.812Z,12076.00
2023-05-15T09:30:02.846Z,12572.00
2023-05-15T09:31:02.992Z,12648.00
2023-05-15T09:32:02.788Z,12748.00
2023-05-15T09:33:02.791Z,12960.00
2023-05-15T09:34:02.511Z,12692.00
2023-05-15T09:35:02.641Z,12208.00
2023-05-15T09:36:02.666Z,11892.00
2023-05-15T09:37:02.446Z,12112.00
2023-05-15T09:38:02.839Z,12708.00
2023-05-15T09:39:02.743Z,12876.00
2023-05-15T09:40:02.742Z,12516.00
2023-05-15T09:41:02.655Z,12164.00
2023-05-15T09:42:03.156Z,11876.00
2023-05-15T09:43:03.242Z,11908.00
2023-05-15T09:44:02.738Z,12624.00
2023-05-15T09:45:03.029Z,13712.00
2023-05-15T09:46:02.822Z,14188.00
2023-05-15T09:47:02.704Z,13648.00
2023-05-15T09:48:03.186Z,12644.00
2023-05-15T09:49:01.955Z,12188.00
2023-05-15T09:50:02.058Z,12328.00
2023-05-15T09:51:02.221Z,13008.00
2023-05-15T09:52:01.839Z,13952.00
2023-05-15T09:53:02.013Z,14752.00
2023-05-15T09:54:02.886Z,15296.00
2023-05-15T09:55:02.597Z,16256.00
2023-05-15T09:56:02.521Z,17760.00
2023-05-15T09:57:02.624Z,19200.00
2023-05-15T09:58:02.472Z,20064.00
2023-05-15T09:59:02.322Z,20608.00
2023-05-15T10:00:02.367Z,20480.00
2023-05-15T10:01:02.103Z,20480.00
2023-05-15T10:02:02.364Z,20704.00
2023-05-15T10:03:02.372Z,21504.00
2023-05-15T10:04:03.314Z,24288.00
2023-05-15T10:05:03.149Z,24096.00
2023-05-15T10:06:03.419Z,25248.00
2023-05-15T10:07:03.169Z,22752.00
2023-05-15T10:08:02.900Z,19488.00
2023-05-15T10:09:02.410Z,17664.00
2023-05-15T10:10:02.371Z,17216.00
2023-05-15T10:11:02.776Z,18496.00
2023-05-15T10:12:02.563Z,19872.00
2023-05-15T10:13:02.452Z,21248.00
2023-05-15T10:14:03.093Z,22400.00
2023-05-15T10:15:02.836Z,24160.00
2023-05-15T10:16:03.359Z,26688.00
2023-05-15T10:17:02.999Z,29216.00
2023-05-15T10:18:02.915Z,31936.00
2023-05-15T10:19:04.928Z,31424.00
2023-05-15T10:20:02.563Z,32832.00
2023-05-15T10:21:02.537Z,35072.00
2023-05-15T10:22:02.568Z,34336.00
2023-05-15T10:23:03.030Z,30720.00
2023-05-15T10:24:03.182Z,40608.00
2023-05-15T10:25:03.655Z,37440.00
2023-05-15T10:26:03.562Z,27360.00
2023-05-15T10:27:03.211Z,25888.00
2023-05-15T10:28:03.704Z,24736.00
2023-05-15T10:29:03.125Z,24512.00
2023-05-15T10:30:02.927Z,24832.00
2023-05-15T10:31:03.007Z,25088.00
2023-05-15T10:32:03.056Z,25920.00
2023-05-15T10:33:02.990Z,27104.00
2023-05-15T10:34:02.319Z,31424.00
2023-05-15T10:35:02.379Z,30560.00
2023-05-15T10:36:02.268Z,31008.00
2023-05-15T10:37:02.905Z,28448.00
2023-05-15T10:38:02.431Z,35584.00
2023-05-15T10:39:02.868Z,35680.00
2023-05-15T10:40:02.657Z,32448.00
2023-05-15T10:41:15.928Z,34208.00
2023-05-15T10:42:02.809Z,27616.00
2023-05-15T10:43:03.201Z,24160.00
2023-05-15T10:44:03.442Z,25216.00
2023-05-15T10:45:03.246Z,25920.00
2023-05-15T10:46:03.687Z,29472.00
2023-05-15T10:47:03.388Z,31712.00
2023-05-15T10:48:03.366Z,28896.00
2023-05-15T10:49:02.985Z,34048.00
2023-05-15T10:50:02.572Z,32384.00
2023-05-15T10:51:02.890Z,26944.00
2023-05-15T10:52:02.529Z,32544.00
2023-05-15T10:53:02.878Z,24480.00
2023-05-15T10:54:03.357Z,26528.00
2023-05-15T10:55:03.556Z,32704.00
2023-05-15T10:56:03.580Z,34048.00
2023-05-15T10:57:03.136Z,36672.00
2023-05-15T10:58:03.618Z,41888.00
2023-05-15T10:59:02.606Z,40864.00
2023-05-15T11:00:02.941Z,39808.00
2023-05-15T11:01:03.038Z,38848.00
2023-05-15T11:02:02.508Z,40800.00
2023-05-15T11:03:03.054Z,40128.00
2023-05-15T11:04:02.003Z,32576.00
2023-05-15T11:05:02.197Z,36960.00
2023-05-15T11:06:02.514Z,39968.00
2023-05-15T11:07:02.115Z,37568.00
2023-05-15T11:08:02.014Z,36064.00
2023-05-15T11:09:02.702Z,33152.00
2023-05-15T11:10:04.327Z,28160.00
2023-05-15T11:11:03.004Z,31328.00
2023-05-15T11:12:03.208Z,28000.00
2023-05-15T11:13:02.765Z,24224.00
2023-05-15T11:14:02.092Z,37120.00
2023-05-15T11:15:02.332Z,27680.00
2023-05-15T11:16:02.022Z,36352.00
2023-05-15T11:17:02.062Z,34944.00
2023-05-15T11:18:02.042Z,37408.00
2023-05-15T11:19:02.478Z,29344.00
2023-05-15T11:20:01.973Z,33824.00
2023-05-15T11:21:02.273Z,35680.00
2023-05-15T11:22:02.229Z,36416.00
2023-05-15T11:23:02.563Z,38720.00
2023-05-15T11:24:02.996Z,38912.00
2023-05-15T11:25:02.349Z,40320.00
2023-05-15T11:26:02.405Z,39456.00
2023-05-15T11:27:02.840Z,41280.00
2023-05-15T11:28:02.749Z,41408.00
2023-05-15T11:29:02.909Z,40640.00
2023-05-15T11:30:03.135Z,41824.00
2023-05-15T11:31:02.785Z,41536.00
2023-05-15T11:32:03.014Z,41056.00
2023-05-15T11:33:02.839Z,42656.00
2023-05-15T11:34:02.815Z,42816.00
2023-05-15T11:35:02.927Z,43200.00
2023-05-15T11:36:03.150Z,42848.00
2023-05-15T11:37:03.342Z,43456.00
2023-05-15T11:38:03.361Z,42560.00
2023-05-15T11:39:03.452Z,40032.00
2023-05-15T11:40:03.256Z,35424.00
2023-05-15T11:41:03.502Z,33632.00
2023-05-15T11:42:03.153Z,39744.00
2023-05-15T11:43:03.037Z,42656.00
2023-05-15T11:44:02.070Z,42176.00
2023-05-15T11:45:02.214Z,43040.00
2023-05-15T11:46:02.223Z,39552.00
2023-05-15T11:47:02.484Z,43232.00
2023-05-15T11:48:02.302Z,43648.00
2023-05-15T11:49:02.469Z,37696.00
2023-05-15T11:50:02.095Z,31456.00
2023-05-15T11:51:02.534Z,38176.00
2023-05-15T11:52:02.439Z,41344.00
2023-05-15T11:53:02.705Z,41824.00
2023-05-15T11:54:02.532Z,41056.00
2023-05-15T11:55:02.492Z,41120.00
2023-05-15T11:56:03.124Z,20864.00
2023-05-15T11:57:02.871Z,44032.00
2023-05-15T11:58:02.549Z,42176.00
2023-05-15T11:59:02.704Z,44736.00
2023-05-15T12:00:03.040Z,48192.00
2023-05-15T12:01:03.097Z,35200.00
2023-05-15T12:02:02.878Z,42816.00
2023-05-15T12:03:03.152Z,42464.00
2023-05-15T12:04:02.775Z,41760.00
2023-05-15T12:05:02.175Z,39808.00
2023-05-15T12:06:02.075Z,37632.00
2023-05-15T12:07:03.192Z,35104.00
2023-05-15T12:08:02.365Z,36160.00
2023-05-15T12:09:02.551Z,36640.00
2023-05-15T12:10:02.646Z,36864.00
2023-05-15T12:11:02.530Z,37152.00
2023-05-15T12:12:02.526Z,36416.00
2023-05-15T12:13:02.832Z,36576.00
2023-05-15T12:14:02.707Z,35232.00
2023-05-15T12:15:02.524Z,34688.00
2023-05-15T12:16:02.494Z,40000.00
2023-05-15T12:17:02.598Z,45408.00
2023-05-15T12:18:02.504Z,45760.00
2023-05-15T12:19:02.713Z,47136.00
2023-05-15T12:20:03.016Z,47584.00